Time,TemperatureF,DewpointF,PressureIn,WindDirection,WindDirectionDegrees,WindSpeedMPH,WindSpeedGustMPH,Humidity,HourlyPrecipIn,Conditions,Clouds,dailyrainin,SoftwareType,DateUTC
2013-04-25 00:04:00,46.7,30.9,30.28,South,187,0.0,0.0,54,0.00,,,0.00,Wunderground v.1.15,2013-04-25 05:04:00,
2013-04-25 00:18:00,46.0,31.6,30.28,South,187,0.0,0.0,57,0.00,,,0.00,Wunderground v.1.15,2013-04-25 05:18:00,
2013-04-25 00:34:00,45.6,32.1,30.27,South,187,1.0,2.0,59,0.00,,,0.00,Wunderground v.1.15,2013-04-25 05:34:00,
2013-04-25 00:48:00,45.2,31.7,30.27,South,187,1.0,3.0,59,0.00,,,0.00,Wunderground v.1.15,2013-04-25 05:48:00,
2013-04-25 01:04:00,44.9,31.8,30.27,South,187,1.0,2.0,60,0.00,,,0.00,Wunderground v.1.15,2013-04-25 06:04:00,
2013-04-25 01:18:00,44.7,31.7,30.27,South,187,2.0,2.0,60,0.00,,,0.00,Wunderground v.1.15,2013-04-25 06:18:00,
2013-04-25 01:34:00,44.7,31.2,30.26,South,187,2.0,2.0,59,0.00,,,0.00,Wunderground v.1.15,2013-04-25 06:34:00,
2013-04-25 01:48:00,44.6,31.1,30.27,South,187,2.0,2.0,59,0.00,,,0.00,Wunderground v.1.15,2013-04-25 06:48:00,
2013-04-25 02:04:00,44.4,31.0,30.27,South,186,2.0,2.0,59,0.00,,,0.00,Wunderground v.1.15,2013-04-25 07:04:00,
2013-04-25 02:18:00,43.9,30.9,30.27,South,186,0.0,0.0,60,0.00,,,0.00,Wunderground v.1.15,2013-04-25 07:18:00,
2013-04-25 02:34:00,43.4,31.2,30.26,South,186,1.0,1.0,62,0.00,,,0.00,Wunderground v.1.15,2013-04-25 07:34:00,
2013-04-25 02:48:00,42.9,31.6,30.26,South,186,1.0,1.0,64,0.00,,,0.00,Wunderground v.1.15,2013-04-25 07:48:00,
2013-04-25 03:04:00,42.4,31.5,30.25,South,186,1.0,1.0,65,0.00,,,0.00,Wunderground v.1.15,2013-04-25 08:04:00,
2013-04-25 03:18:00,42.5,31.6,30.26,South,186,2.0,2.0,65,0.00,,,0.00,Wunderground v.1.15,2013-04-25 08:18:00,
2013-04-25 03:34:00,42.5,31.9,30.25,South,186,2.0,2.0,66,0.00,,,0.00,Wunderground v.1.15,2013-04-25 08:34:00,
2013-04-25 03:48:00,42.3,31.4,30.26,South,186,1.0,1.0,65,0.00,,,0.00,Wunderground v.1.15,2013-04-25 08:48:00,
2013-04-25 04:04:00,42.2,31.3,30.26,South,186,0.0,0.0,65,0.00,,,0.00,Wunderground v.1.15,2013-04-25 09:04:00,
2013-04-25 04:18:00,41.7,31.5,30.26,South,186,0.0,0.0,67,0.00,,,0.00,Wunderground v.1.15,2013-04-25 09:18:00,
2013-04-25 04:34:00,41.5,31.7,30.26,South,186,0.0,0.0,68,0.00,,,0.00,Wunderground v.1.15,2013-04-25 09:34:00,
2013-04-25 04:48:00,41.5,32.1,30.26,South,186,0.0,0.0,69,0.00,,,0.00,Wunderground v.1.15,2013-04-25 09:48:00,
2013-04-25 05:04:00,41.3,31.5,30.27,South,186,0.0,0.0,68,0.00,,,0.00,Wunderground v.1.15,2013-04-25 10:04:00,
2013-04-25 05:18:00,41.1,31.7,30.27,South,186,0.0,0.0,69,0.00,,,0.00,Wunderground v.1.15,2013-04-25 10:18:00,
2013-04-25 05:34:00,41.0,31.6,30.27,South,186,0.0,0.0,69,0.00,,,0.00,Wunderground v.1.15,2013-04-25 10:34:00,
2013-04-25 05:48:00,40.4,31.4,30.27,South,186,0.0,0.0,70,0.00,,,0.00,Wunderground v.1.15,2013-04-25 10:48:00,
2013-04-25 06:04:00,40.0,31.0,30.27,South,186,0.0,0.0,70,0.00,,,0.00,Wunderground v.1.15,2013-04-25 11:04:00,
2013-04-25 06:18:00,39.9,31.3,30.27,South,186,0.0,0.0,71,0.00,,,0.00,Wunderground v.1.15,2013-04-25 11:18:00,
2013-04-25 06:34:00,40.1,31.4,30.28,South,186,0.0,0.0,71,0.00,,,0.00,Wunderground v.1.15,2013-04-25 11:34:00,
2013-04-25 06:48:00,40.1,31.4,30.29,South,186,0.0,0.0,71,0.00,,,0.00,Wunderground v.1.15,2013-04-25 11:48:00,
2013-04-25 07:04:00,40.5,31.8,30.30,South,186,0.0,0.0,71,0.00,,,0.00,Wunderground v.1.15,2013-04-25 12:04:00,
2013-04-25 07:18:00,41.5,31.7,30.30,South,186,0.0,0.0,68,0.00,,,0.00,Wunderground v.1.15,2013-04-25 12:18:00,
2013-04-25 07:34:00,42.8,31.8,30.30,South,186,0.0,1.0,65,0.00,,,0.00,Wunderground v.1.15,2013-04-25 12:34:00,
2013-04-25 07:48:00,44.0,32.6,30.31,South,186,1.0,1.0,64,0.00,,,0.00,Wunderground v.1.15,2013-04-25 12:48:00,
2013-04-25 08:04:00,45.8,33.1,30.31,South,186,0.0,0.0,61,0.00,,,0.00,Wunderground v.1.15,2013-04-25 13:04:00,
2013-04-25 08:18:00,47.5,33.4,30.32,South,186,1.0,1.0,58,0.00,,,0.00,Wunderground v.1.15,2013-04-25 13:18:00,
2013-04-25 08:34:00,49.2,32.8,30.32,South,186,1.0,2.0,53,0.00,,,0.00,Wunderground v.1.15,2013-04-25 13:34:00,
2013-04-25 08:48:00,50.7,32.2,30.32,South,187,1.0,1.0,49,0.00,,,0.00,Wunderground v.1.15,2013-04-25 13:48:00,
2013-04-25 09:04:00,52.1,32.5,30.33,South,188,1.0,1.0,47,0.00,,,0.00,Wunderground v.1.15,2013-04-25 14:04:00,
2013-04-25 09:18:00,53.1,32.3,30.32,SSW,199,2.0,2.0,45,0.00,,,0.00,Wunderground v.1.15,2013-04-25 14:18:00,
2013-04-25 09:34:00,54.0,32.6,30.32,South,180,3.0,3.0,44,0.00,,,0.00,Wunderground v.1.15,2013-04-25 14:34:00,
2013-04-25 09:48:00,55.9,33.1,30.31,South,181,1.0,1.0,42,0.00,,,0.00,Wunderground v.1.15,2013-04-25 14:48:00,
2013-04-25 10:04:00,57.3,33.8,30.32,South,176,1.0,1.0,41,0.00,,,0.00,Wunderground v.1.15,2013-04-25 15:04:00,
2013-04-25 10:18:00,58.1,34.5,30.31,SSE,159,2.0,3.0,41,0.00,,,0.00,Wunderground v.1.15,2013-04-25 15:18:00,
2013-04-25 10:34:00,60.2,35.1,30.31,SSW,196,0.0,1.0,39,0.00,,,0.00,Wunderground v.1.15,2013-04-25 15:34:00,
2013-04-25 10:48:00,61.2,35.4,30.31,SSW,196,1.0,1.0,38,0.00,,,0.00,Wunderground v.1.15,2013-04-25 15:48:00,
2013-04-25 11:04:00,63.3,35.2,30.30,SSW,209,0.0,0.0,35,0.00,,,0.00,Wunderground v.1.15,2013-04-25 16:04:00,
2013-04-25 11:18:00,64.0,33.5,30.30,SSW,200,1.0,3.0,32,0.00,,,0.00,Wunderground v.1.15,2013-04-25 16:18:00,
2013-04-25 11:34:00,65.0,32.8,30.29,South,181,1.0,1.0,30,0.00,,,0.00,Wunderground v.1.15,2013-04-25 16:34:00,
2013-04-25 11:48:00,66.1,32.0,30.29,South,180,1.0,1.0,28,0.00,,,0.00,Wunderground v.1.15,2013-04-25 16:48:00,
2013-04-25 12:04:00,66.1,31.1,30.28,SSE,162,1.0,1.0,27,0.00,,,0.00,Wunderground v.1.15,2013-04-25 17:04:00,
2013-04-25 12:18:00,65.7,29.8,30.27,SSE,167,3.0,3.0,26,0.00,,,0.00,Wunderground v.1.15,2013-04-25 17:18:00,
2013-04-25 12:34:00,67.8,31.6,30.26,South,180,2.0,2.0,26,0.00,,,0.00,Wunderground v.1.15,2013-04-25 17:34:00,
2013-04-25 12:48:00,68.0,33.7,30.26,SSE,162,2.0,2.0,28,0.00,,,0.00,Wunderground v.1.15,2013-04-25 17:48:00,
2013-04-25 13:04:00,67.8,31.6,30.26,South,169,2.0,4.0,26,0.00,,,0.00,Wunderground v.1.15,2013-04-25 18:04:00,
2013-04-25 13:18:00,68.7,31.4,30.25,South,176,3.0,3.0,25,0.00,,,0.00,Wunderground v.1.15,2013-04-25 18:18:00,
2013-04-25 13:34:00,68.3,30.1,30.24,SSW,196,4.0,4.0,24,0.00,,,0.00,Wunderground v.1.15,2013-04-25 18:34:00,
2013-04-25 13:48:00,69.4,31.0,30.24,South,172,3.0,5.0,24,0.00,,,0.00,Wunderground v.1.15,2013-04-25 18:48:00,
2013-04-25 14:04:00,68.7,33.3,30.23,SE,134,5.0,5.0,27,0.00,,,0.00,Wunderground v.1.15,2013-04-25 19:04:00,
2013-04-25 14:18:00,69.9,34.4,30.23,SSW,195,4.0,4.0,27,0.00,,,0.00,Wunderground v.1.15,2013-04-25 19:18:00,
2013-04-25 14:34:00,70.8,35.1,30.23,South,184,3.0,3.0,27,0.00,,,0.00,Wunderground v.1.15,2013-04-25 19:34:00,
2013-04-25 14:48:00,69.9,35.3,30.22,SSE,148,6.0,6.0,28,0.00,,,0.00,Wunderground v.1.15,2013-04-25 19:48:00,
2013-04-25 15:04:00,70.0,33.5,30.22,SSE,159,5.0,5.0,26,0.00,,,0.00,Wunderground v.1.15,2013-04-25 20:04:00,
2013-04-25 15:18:00,70.1,33.6,30.21,SSE,155,4.0,4.0,26,0.00,,,0.00,Wunderground v.1.15,2013-04-25 20:18:00,
2013-04-25 15:34:00,69.7,33.3,30.20,SSE,167,5.0,5.0,26,0.00,,,0.00,Wunderground v.1.15,2013-04-25 20:34:00,
2013-04-25 15:48:00,70.9,33.3,30.20,SSW,202,4.0,4.0,25,0.00,,,0.00,Wunderground v.1.15,2013-04-25 20:48:00,
2013-04-25 16:04:00,70.6,32.0,30.18,South,189,4.0,4.0,24,0.00,,,0.00,Wunderground v.1.15,2013-04-25 21:04:00,
2013-04-25 16:18:00,69.9,32.5,30.18,SSE,161,4.0,4.0,25,0.00,,,0.00,Wunderground v.1.15,2013-04-25 21:18:00,
2013-04-25 16:34:00,68.8,31.5,30.17,SSW,194,6.0,6.0,25,0.00,,,0.00,Wunderground v.1.15,2013-04-25 21:34:00,
2013-04-25 16:48:00,69.1,31.8,30.16,SSE,153,4.0,4.0,25,0.00,,,0.00,Wunderground v.1.15,2013-04-25 21:48:00,
2013-04-25 17:04:00,68.8,31.5,30.16,East,92,6.0,6.0,25,0.00,,,0.00,Wunderground v.1.15,2013-04-25 22:04:00,
2013-04-25 17:18:00,68.4,31.2,30.15,SSE,150,4.0,4.0,25,0.00,,,0.00,Wunderground v.1.15,2013-04-25 22:18:00,
2013-04-25 17:34:00,68.3,31.1,30.15,SSE,165,5.0,5.0,25,0.00,,,0.00,Wunderground v.1.15,2013-04-25 22:34:00,
2013-04-25 17:48:00,68.4,31.2,30.16,South,169,5.0,7.0,25,0.00,,,0.00,Wunderground v.1.15,2013-04-25 22:48:00,
2013-04-25 18:04:00,68.1,33.7,30.16,South,169,4.0,4.0,28,0.00,,,0.00,Wunderground v.1.15,2013-04-25 23:04:00,
2013-04-25 18:18:00,68.2,32.9,30.16,SSW,194,4.0,7.0,27,0.00,,,0.00,Wunderground v.1.15,2013-04-25 23:18:00,
2013-04-25 18:36:00,68.0,34.5,30.14,SSE,161,4.0,4.0,29,0.00,,,0.00,Wunderground v.1.15,2013-04-25 23:36:00,
2013-04-25 18:48:00,67.9,35.3,30.13,SSE,152,3.0,4.0,30,0.00,,,0.00,Wunderground v.1.15,2013-04-25 23:48:00,
2013-04-25 19:04:00,68.0,34.5,30.14,SE,146,3.0,6.0,29,0.00,,,0.00,Wunderground v.1.15,2013-04-26 00:04:00,
2013-04-25 19:18:00,67.5,32.3,30.14,SE,141,5.0,8.0,27,0.00,,,0.00,Wunderground v.1.15,2013-04-26 00:18:00,
2013-04-25 19:34:00,67.2,32.1,30.14,SSE,157,3.0,4.0,27,0.00,,,0.00,Wunderground v.1.15,2013-04-26 00:34:00,
2013-04-25 19:48:00,66.9,31.8,30.13,SE,140,3.0,6.0,27,0.00,,,0.00,Wunderground v.1.15,2013-04-26 00:48:00,
2013-04-25 20:04:00,66.7,32.5,30.11,SE,140,2.0,6.0,28,0.00,,,0.00,Wunderground v.1.15,2013-04-26 01:04:00,
2013-04-25 20:18:00,66.1,32.0,30.12,SE,138,2.0,2.0,28,0.00,,,0.00,Wunderground v.1.15,2013-04-26 01:18:00,
2013-04-25 20:34:00,65.5,32.4,30.12,SE,127,4.0,4.0,29,0.00,,,0.00,Wunderground v.1.15,2013-04-26 01:34:00,
2013-04-25 20:48:00,64.9,33.5,30.11,SE,146,3.0,3.0,31,0.00,,,0.00,Wunderground v.1.15,2013-04-26 01:48:00,
2013-04-25 21:04:00,64.5,33.2,30.12,SE,126,2.0,2.0,31,0.00,,,0.00,Wunderground v.1.15,2013-04-26 02:04:00,
2013-04-25 21:18:00,64.2,33.7,30.12,SSE,158,3.0,3.0,32,0.00,,,0.00,Wunderground v.1.15,2013-04-26 02:18:00,
2013-04-25 21:34:00,64.1,33.6,30.12,SSE,167,4.0,4.0,32,0.00,,,0.00,Wunderground v.1.15,2013-04-26 02:34:00,
2013-04-25 21:48:00,64.1,33.6,30.11,SSE,160,5.0,5.0,32,0.00,,,0.00,Wunderground v.1.15,2013-04-26 02:48:00,
2013-04-25 22:04:00,64.0,33.5,30.12,South,169,5.0,5.0,32,0.00,,,0.00,Wunderground v.1.15,2013-04-26 03:04:00,
2013-04-25 22:18:00,63.8,34.1,30.11,SSE,157,4.0,4.0,33,0.00,,,0.00,Wunderground v.1.15,2013-04-26 03:18:00,
2013-04-25 22:34:00,63.8,34.9,30.11,South,180,4.0,4.0,34,0.00,,,0.00,Wunderground v.1.15,2013-04-26 03:34:00,
2013-04-25 22:48:00,63.7,34.8,30.11,SSE,159,4.0,4.0,34,0.00,,,0.00,Wunderground v.1.15,2013-04-26 03:48:00,
2013-04-25 23:04:00,63.6,35.4,30.12,South,178,4.0,5.0,35,0.00,,,0.00,Wunderground v.1.15,2013-04-26 04:04:00,
2013-04-25 23:06:00,63.6,35.4,30.12,SE,146,4.0,5.0,35,0.00,,,0.00,Wunderground v.1.15,2013-04-26 04:06:00,
2013-04-25 23:18:00,63.5,36.0,30.12,South,180,5.0,9.0,36,0.00,,,0.00,Wunderground v.1.15,2013-04-26 04:18:00,
2013-04-25 23:20:00,63.5,36.0,30.12,South,186,5.0,9.0,36,0.00,,,0.00,Wunderground v.1.15,2013-04-26 04:20:00,
2013-04-25 23:34:00,63.2,37.2,30.12,South,190,5.0,7.0,38,0.00,,,0.00,Wunderground v.1.15,2013-04-26 04:34:00,
2013-04-25 23:48:00,62.8,38.1,30.12,South,183,4.0,5.0,40,0.00,,,0.00,Wunderground v.1.15,2013-04-26 04:48:00,